createdAt,value
2022-11-09T00:01:02.186Z,22.83
2022-11-09T00:03:28.505Z,18.98
2022-11-09T00:05:56.749Z,21.20
2022-11-09T00:08:23.089Z,19.63
2022-11-09T00:10:49.557Z,18.27
2022-11-09T00:13:16.133Z,20.20
2022-11-09T00:15:42.613Z,20.55
2022-11-09T00:18:08.994Z,20.73
2022-11-09T00:20:35.328Z,21.90
2022-11-09T00:23:01.698Z,22.35
2022-11-09T00:25:28.045Z,23.17
2022-11-09T00:27:54.431Z,24.48
2022-11-09T00:30:20.791Z,26.45
2022-11-09T00:32:48.027Z,24.35
2022-11-09T00:35:14.539Z,20.23
2022-11-09T00:37:40.996Z,21.02
2022-11-09T00:40:08.657Z,22.08
2022-11-09T00:42:34.998Z,23.50
2022-11-09T00:45:01.394Z,23.80
2022-11-09T00:47:27.743Z,22.33
2022-11-09T00:49:54.073Z,26.88
2022-11-09T00:52:20.415Z,25.50
2022-11-09T00:54:46.780Z,23.63
2022-11-09T00:57:14.069Z,21.88
2022-11-09T00:59:40.530Z,21.50
2022-11-09T01:02:06.920Z,24.10
2022-11-09T01:04:33.271Z,24.63
2022-11-09T01:06:59.949Z,25.00
2022-11-09T01:09:26.404Z,22.75
2022-11-09T01:11:52.887Z,25.30
2022-11-09T01:14:19.269Z,25.00
2022-11-09T01:16:45.622Z,22.60
2022-11-09T01:19:12.045Z,26.05
2022-11-09T01:21:38.448Z,29.15
2022-11-09T01:24:05.400Z,24.35
2022-11-09T01:26:31.771Z,29.23
2022-11-09T01:28:58.126Z,30.52
2022-11-09T01:31:24.518Z,29.77
2022-11-09T01:33:51.209Z,30.33
2022-11-09T01:36:20.518Z,29.10
2022-11-09T01:38:47.317Z,27.58
2022-11-09T01:41:27.828Z,23.38
2022-11-09T01:44:11.153Z,21.58
2022-11-09T01:46:44.932Z,26.75
2022-11-09T01:49:40.755Z,26.98
2022-11-09T01:52:12.578Z,24.05
2022-11-09T01:54:45.690Z,28.05
2022-11-09T01:57:18.026Z,26.67
2022-11-09T01:59:48.564Z,27.20
2022-11-09T02:02:15.313Z,28.02
2022-11-09T02:05:05.857Z,28.40
2022-11-09T02:07:34.011Z,26.55
2022-11-09T02:10:33.772Z,25.27
2022-11-09T02:15:27.711Z,24.15
2022-11-09T02:17:55.898Z,26.27
2022-11-09T02:20:23.262Z,27.42
2022-11-09T02:22:51.092Z,28.77
2022-11-09T02:25:17.699Z,26.23
2022-11-09T02:27:44.513Z,21.70
2022-11-09T02:30:12.068Z,26.80
2022-11-09T02:32:38.483Z,28.45
2022-11-09T02:35:05.304Z,28.77
2022-11-09T02:37:39.890Z,29.95
2022-11-09T02:40:32.832Z,33.35
2022-11-09T02:43:01.547Z,25.48
2022-11-09T02:45:28.010Z,30.17
2022-11-09T02:47:54.438Z,22.25
2022-11-09T02:50:20.979Z,26.75
2022-11-09T02:52:47.326Z,32.38
2022-11-09T02:55:13.719Z,30.70
2022-11-09T02:57:40.307Z,26.48
2022-11-09T03:00:07.461Z,28.73
2022-11-09T03:02:34.049Z,29.98
2022-11-09T03:05:00.433Z,26.92
2022-11-09T03:07:26.976Z,26.38
2022-11-09T03:09:53.927Z,26.45
2022-11-09T03:12:29.522Z,27.35
2022-11-09T03:15:05.259Z,24.63
2022-11-09T03:17:32.435Z,28.30
2022-11-09T03:19:58.828Z,29.45
2022-11-09T03:22:25.184Z,30.15
2022-11-09T03:24:51.646Z,32.33
2022-11-09T03:27:18.203Z,26.35
2022-11-09T03:29:44.607Z,31.15
2022-11-09T03:32:12.001Z,28.48
2022-11-09T03:34:38.375Z,32.92
2022-11-09T03:37:04.768Z,32.95
2022-11-09T03:39:31.139Z,30.05
2022-11-09T03:41:57.510Z,29.58
2022-11-09T03:44:23.869Z,29.73
2022-11-09T03:46:50.221Z,30.38
2022-11-09T03:49:16.648Z,28.83
2022-11-09T03:51:42.992Z,29.00
2022-11-09T03:54:09.509Z,28.95
2022-11-09T03:56:35.838Z,32.38
2022-11-09T03:59:02.378Z,27.65
2022-11-09T04:01:28.856Z,29.02
2022-11-09T04:03:55.301Z,27.63
2022-11-09T04:06:21.671Z,28.58
2022-11-09T04:08:51.311Z,24.42
2022-11-09T04:11:18.266Z,27.67
2022-11-09T04:13:44.617Z,31.88
2022-11-09T04:16:10.970Z,29.88
2022-11-09T04:18:37.422Z,26.13
2022-11-09T04:21:03.781Z,30.50
2022-11-09T04:23:30.144Z,26.80
2022-11-09T04:25:58.502Z,28.98
2022-11-09T04:28:25.041Z,24.77
2022-11-09T04:30:51.612Z,27.38
2022-11-09T04:33:18.337Z,26.40
2022-11-09T04:35:44.903Z,29.38
2022-11-09T04:38:13.119Z,26.20
2022-11-09T04:40:39.551Z,26.33
2022-11-09T04:43:07.947Z,27.05
2022-11-09T04:45:34.675Z,28.45
2022-11-09T04:48:02.870Z,28.67
2022-11-09T04:50:30.522Z,28.52
2022-11-09T04:53:07.760Z,59.53
2022-11-09T04:55:34.407Z,94.55
2022-11-09T04:58:00.748Z,32.38
2022-11-09T05:00:27.153Z,27.92
2022-11-09T05:02:53.602Z,25.73
2022-11-09T05:05:20.044Z,28.02
2022-11-09T05:07:46.380Z,26.75
2022-11-09T05:10:12.717Z,28.05
2022-11-09T05:12:43.448Z,32.15
2022-11-09T05:15:12.169Z,25.17
2022-11-09T05:17:38.475Z,26.88
2022-11-09T05:20:05.183Z,28.17
2022-11-09T05:22:50.329Z,25.85
2022-11-09T05:25:16.810Z,23.40
2022-11-09T05:27:43.155Z,25.17
2022-11-09T05:30:09.944Z,32.22
2022-11-09T05:32:39.276Z,28.65
2022-11-09T05:35:06.064Z,20.98
2022-11-09T05:37:32.458Z,25.00
2022-11-09T05:39:58.855Z,25.80
2022-11-09T05:42:25.285Z,24.85
2022-11-09T05:44:51.709Z,22.95
2022-11-09T05:47:19.338Z,20.13
2022-11-09T05:49:45.703Z,25.92
2022-11-09T05:52:12.697Z,23.17
2022-11-09T05:54:39.112Z,20.00
2022-11-09T05:57:05.548Z,30.02
2022-11-09T05:59:31.923Z,23.60
2022-11-09T06:01:58.264Z,24.42
2022-11-09T06:04:24.785Z,22.92
2022-11-09T06:06:51.163Z,22.20
2022-11-09T06:09:17.634Z,23.20
2022-11-09T06:11:43.974Z,24.67
2022-11-09T06:14:10.312Z,19.35
2022-11-09T06:16:36.774Z,16.60
2022-11-09T06:19:03.252Z,18.23
2022-11-09T06:21:29.602Z,20.92
2022-11-09T06:23:55.976Z,19.08
2022-11-09T06:26:22.370Z,20.90
2022-11-09T06:28:48.779Z,25.50
2022-11-09T06:31:16.817Z,25.80
2022-11-09T06:33:43.581Z,23.40
2022-11-09T06:36:11.297Z,26.42
2022-11-09T06:38:37.805Z,20.65
2022-11-09T06:41:04.282Z,26.17
2022-11-09T06:43:32.048Z,26.05
2022-11-09T06:45:58.521Z,28.80
2022-11-09T06:48:24.911Z,33.50
2022-11-09T06:50:51.356Z,35.95
2022-11-09T06:53:18.624Z,19.45
2022-11-09T06:55:50.217Z,24.70
2022-11-09T06:58:19.356Z,26.90
2022-11-09T07:00:46.126Z,39.38
2022-11-09T07:03:16.898Z,42.53
2022-11-09T07:05:43.995Z,51.38
2022-11-09T07:08:11.061Z,52.75
2022-11-09T07:10:37.697Z,42.30
2022-11-09T07:13:04.993Z,41.00
2022-11-09T07:15:32.165Z,27.60
2022-11-09T07:18:03.491Z,45.40
2022-11-09T07:22:56.527Z,26.77
2022-11-09T07:25:23.293Z,26.30
2022-11-09T07:27:50.225Z,21.25
2022-11-09T07:30:16.815Z,38.17
2022-11-09T07:35:30.789Z,15.48
2022-11-09T07:38:01.683Z,20.73
2022-11-09T07:40:28.295Z,16.00
2022-11-09T07:42:58.771Z,15.73
2022-11-09T07:45:25.937Z,15.18
2022-11-09T07:48:00.438Z,14.93
2022-11-09T07:50:28.366Z,14.77
2022-11-09T07:52:56.300Z,21.80
2022-11-09T07:55:23.369Z,13.50
2022-11-09T07:57:54.344Z,13.07
2022-11-09T08:00:23.594Z,20.48
2022-11-09T08:02:50.357Z,36.58
2022-11-09T08:05:16.889Z,13.23
2022-11-09T08:07:43.270Z,23.55
2022-11-09T08:10:10.067Z,33.15
2022-11-09T08:12:37.393Z,35.00
2022-11-09T08:15:05.247Z,32.10
2022-11-09T08:17:32.005Z,22.95
2022-11-09T08:19:58.338Z,19.00
2022-11-09T08:22:24.709Z,14.68
2022-11-09T08:24:51.268Z,17.75
2022-11-09T08:27:17.607Z,11.85
2022-11-09T08:29:44.848Z,12.23
2022-11-09T08:32:11.303Z,13.35
2022-11-09T08:34:37.625Z,9.98
2022-11-09T08:37:05.357Z,12.18
2022-11-09T08:39:31.743Z,11.15
2022-11-09T08:41:58.315Z,12.88
2022-11-09T08:44:24.665Z,12.35
2022-11-09T08:46:51.037Z,11.50
2022-11-09T08:49:17.958Z,12.38
2022-11-09T08:51:44.271Z,12.98
2022-11-09T08:54:11.302Z,17.23
2022-11-09T08:56:37.725Z,15.00
2022-11-09T08:59:04.070Z,14.35
2022-11-09T09:01:31.866Z,14.90
2022-11-09T09:03:58.248Z,16.20
2022-11-09T09:06:29.773Z,12.20
2022-11-09T09:08:57.381Z,17.40
2022-11-09T09:11:23.742Z,12.57
2022-11-09T09:13:50.229Z,12.02
2022-11-09T09:16:16.604Z,12.68
2022-11-09T09:18:44.066Z,16.02
2022-11-09T09:21:10.942Z,12.20
2022-11-09T09:23:37.391Z,13.02
2022-11-09T09:26:04.235Z,14.95
2022-11-09T09:28:30.631Z,15.43
2022-11-09T09:31:01.000Z,14.60
2022-11-09T09:33:27.990Z,13.55
2022-11-09T09:35:58.543Z,14.98
2022-11-09T09:38:28.914Z,15.63
2022-11-09T09:41:03.514Z,16.70
2022-11-09T09:43:32.089Z,10.68
2022-11-09T09:46:00.540Z,9.85
2022-11-09T09:48:35.026Z,10.75
2022-11-09T09:51:32.267Z,11.88
2022-11-09T09:54:21.460Z,11.23
2022-11-09T09:56:50.770Z,10.15
2022-11-09T09:59:41.465Z,8.90
2022-11-09T10:02:35.449Z,9.32
2022-11-09T10:05:07.931Z,10.50
2022-11-09T10:08:14.217Z,8.98
2022-11-09T10:11:05.723Z,10.00
2022-11-09T10:13:55.226Z,9.95
2022-11-09T10:16:47.612Z,10.52
2022-11-09T10:19:32.174Z,10.68
2022-11-09T10:22:11.433Z,11.55
2022-11-09T10:25:12.826Z,10.27
2022-11-09T10:27:32.484Z,9.63
2022-11-09T10:29:59.651Z,8.77
2022-11-09T10:32:30.319Z,8.63
2022-11-09T10:35:13.948Z,9.68
2022-11-09T10:37:43.076Z,12.10
2022-11-09T10:40:31.500Z,11.15
2022-11-09T10:43:00.651Z,9.82
2022-11-09T10:45:30.832Z,8.85
2022-11-09T10:47:57.701Z,6.65
2022-11-09T10:50:53.811Z,9.48
2022-11-09T10:53:25.561Z,7.40
2022-11-09T10:55:56.137Z,8.18
2022-11-09T10:58:33.072Z,7.72
2022-11-09T11:03:32.863Z,7.53
2022-11-09T11:06:27.390Z,9.00
2022-11-09T11:09:05.731Z,9.68
2022-11-09T11:11:37.709Z,8.20
2022-11-09T11:14:25.283Z,9.57
2022-11-09T11:16:53.482Z,9.30
2022-11-09T11:19:41.367Z,8.57
2022-11-09T11:22:23.145Z,9.77
2022-11-09T11:24:55.505Z,9.85
2022-11-09T11:27:22.918Z,9.88
2022-11-09T11:29:59.332Z,12.20
2022-11-09T11:32:25.984Z,10.43
2022-11-09T11:35:01.165Z,11.63
2022-11-09T11:38:09.405Z,8.25
2022-11-09T11:40:48.586Z,8.77
2022-11-09T11:43:24.877Z,10.57
2022-11-09T11:46:08.764Z,9.45
2022-11-09T11:48:48.595Z,10.00
2022-11-09T11:51:39.988Z,8.60
2022-11-09T11:54:20.329Z,10.82
2022-11-09T11:56:52.629Z,9.35
2022-11-09T11:59:35.899Z,8.70
2022-11-09T12:02:47.014Z,9.27
2022-11-09T12:05:43.646Z,9.63
2022-11-09T12:08:34.505Z,8.43
2022-11-09T12:11:30.921Z,10.30
2022-11-09T12:14:16.702Z,9.23
2022-11-09T12:16:48.741Z,9.60
2022-11-09T12:19:35.099Z,8.15
2022-11-09T12:22:18.073Z,9.48
2022-11-09T12:24:58.856Z,9.88
2022-11-09T12:27:48.179Z,10.25
2022-11-09T12:30:18.271Z,10.43
2022-11-09T12:33:06.187Z,8.18
2022-11-09T12:35:40.764Z,10.07
2022-11-09T12:38:18.331Z,13.07
2022-11-09T12:40:51.905Z,9.90
2022-11-09T12:43:25.475Z,8.15
2022-11-09T12:45:52.977Z,9.48
2022-11-09T12:48:25.742Z,11.23
2022-11-09T12:50:53.672Z,10.38
2022-11-09T12:53:24.134Z,9.73
2022-11-09T12:55:58.485Z,8.57
2022-11-09T12:58:30.692Z,9.73
2022-11-09T13:00:59.791Z,11.07
2022-11-09T13:03:32.171Z,9.98
2022-11-09T13:06:25.348Z,10.93
2022-11-09T13:08:59.152Z,9.45
2022-11-09T13:11:34.118Z,12.27
2022-11-09T13:14:22.308Z,10.07
2022-11-09T13:19:38.161Z,11.68
2022-11-09T13:22:13.635Z,11.00
2022-11-09T13:25:00.390Z,13.93
2022-11-09T13:27:35.194Z,10.43
2022-11-09T13:30:02.574Z,10.15
2022-11-09T13:32:33.083Z,11.00
2022-11-09T13:35:01.266Z,8.98
2022-11-09T13:37:42.662Z,10.55
2022-11-09T13:40:30.999Z,10.93
2022-11-09T13:43:01.682Z,10.10
2022-11-09T13:45:36.252Z,10.15
2022-11-09T13:48:04.429Z,11.10
2022-11-09T13:50:33.104Z,11.77
2022-11-09T13:53:00.854Z,11.10
2022-11-09T13:55:53.648Z,12.93
2022-11-09T13:58:37.360Z,12.13
2022-11-09T14:01:03.694Z,11.27
2022-11-09T14:03:30.190Z,10.52
2022-11-09T14:06:00.231Z,10.13
2022-11-09T14:08:45.759Z,11.68
2022-11-09T14:11:21.285Z,11.00
2022-11-09T14:14:03.856Z,10.70
2022-11-09T14:16:45.647Z,12.13
2022-11-09T14:19:25.177Z,10.75
2022-11-09T14:21:52.977Z,11.10
2022-11-09T14:24:28.830Z,10.27
2022-11-09T14:27:10.180Z,11.80
2022-11-09T14:29:50.335Z,12.68
2022-11-09T14:32:35.540Z,10.52
2022-11-09T14:35:33.472Z,13.65
2022-11-09T14:38:13.050Z,11.63
2022-11-09T14:40:45.673Z,10.65
2022-11-09T14:43:29.451Z,10.38
2022-11-09T14:46:02.898Z,11.10
2022-11-09T14:48:31.804Z,16.20
2022-11-09T14:51:01.007Z,20.50
2022-11-09T14:53:34.929Z,13.02
2022-11-09T14:56:04.578Z,17.73
2022-11-09T14:58:34.678Z,11.20
2022-11-09T15:01:24.354Z,17.33
2022-11-09T15:04:11.256Z,15.90
2022-11-09T15:06:50.917Z,18.13
2022-11-09T15:09:20.773Z,15.45
2022-11-09T15:11:48.266Z,12.95
2022-11-09T15:14:17.725Z,15.20
2022-11-09T15:16:45.356Z,15.90
2022-11-09T15:19:32.849Z,15.63
2022-11-09T15:21:59.646Z,15.60
2022-11-09T15:24:28.654Z,14.90
2022-11-09T15:26:56.806Z,12.80
2022-11-09T15:29:27.638Z,15.35
2022-11-09T15:32:21.963Z,20.35
2022-11-09T15:34:51.360Z,24.65
2022-11-09T15:37:31.120Z,29.25
2022-11-09T15:39:58.743Z,35.95
2022-11-09T15:42:26.416Z,17.58
2022-11-09T15:44:55.467Z,27.50
2022-11-09T15:47:33.193Z,15.65
2022-11-09T15:50:01.582Z,39.05
2022-11-09T15:52:28.586Z,17.27
2022-11-09T15:54:54.906Z,36.95
2022-11-09T15:57:21.787Z,24.73
2022-11-09T15:59:50.450Z,35.97
2022-11-09T16:02:18.994Z,26.77
2022-11-09T16:04:45.337Z,19.75
2022-11-09T16:07:15.201Z,22.60
2022-11-09T16:09:42.487Z,23.23
2022-11-09T16:12:09.711Z,21.45
2022-11-09T16:14:36.218Z,22.60
2022-11-09T16:17:04.298Z,22.90
2022-11-09T16:19:30.655Z,19.38
2022-11-09T16:21:58.424Z,18.85
2022-11-09T16:24:24.796Z,23.27
2022-11-09T16:26:52.874Z,19.75
2022-11-09T16:29:19.450Z,22.20
2022-11-09T16:31:51.778Z,22.38
2022-11-09T16:34:19.172Z,18.33
2022-11-09T16:36:50.868Z,22.25
2022-11-09T16:39:19.245Z,23.08
2022-11-09T16:41:48.877Z,20.38
2022-11-09T16:44:18.509Z,22.20
2022-11-09T16:46:47.020Z,21.30
2022-11-09T16:49:14.562Z,21.02
2022-11-09T16:51:41.022Z,18.88
2022-11-09T16:54:07.434Z,18.63
2022-11-09T16:56:35.221Z,18.50
2022-11-09T16:59:01.667Z,20.90
2022-11-09T17:01:28.132Z,19.77
2022-11-09T17:03:54.690Z,17.42
2022-11-09T17:06:21.035Z,18.50
2022-11-09T17:08:47.575Z,23.13
2022-11-09T17:11:15.258Z,18.23
2022-11-09T17:13:43.013Z,19.15
2022-11-09T17:16:12.879Z,18.45
2022-11-09T17:18:39.722Z,19.63
2022-11-09T17:21:10.923Z,20.85
2022-11-09T17:26:07.152Z,22.35
2022-11-09T17:28:37.659Z,19.85
2022-11-09T17:31:12.802Z,19.98
2022-11-09T17:33:39.185Z,19.30
2022-11-09T17:36:08.027Z,18.75
2022-11-09T17:38:34.893Z,19.35
2022-11-09T17:41:07.924Z,24.42
2022-11-09T17:43:38.185Z,21.48
2022-11-09T17:46:07.506Z,17.80
2022-11-09T17:48:36.305Z,15.40
2022-11-09T17:51:03.967Z,18.15
2022-11-09T17:53:30.651Z,18.23
2022-11-09T17:55:58.927Z,20.83
2022-11-09T17:58:25.815Z,18.20
2022-11-09T18:00:52.388Z,16.27
2022-11-09T18:03:19.105Z,19.30
2022-11-09T18:05:45.985Z,17.73
2022-11-09T18:08:14.353Z,25.95
2022-11-09T18:10:44.498Z,18.95
2022-11-09T18:13:11.719Z,18.55
2022-11-09T18:15:39.140Z,20.48
2022-11-09T18:18:06.871Z,21.38
2022-11-09T18:20:33.889Z,19.77
2022-11-09T18:23:00.230Z,20.08
2022-11-09T18:25:26.584Z,18.30
2022-11-09T18:27:53.000Z,19.33
2022-11-09T18:30:19.765Z,23.13
2022-11-09T18:32:46.264Z,19.10
2022-11-09T18:35:12.754Z,18.80
2022-11-09T18:37:39.830Z,22.52
2022-11-09T18:40:07.621Z,20.08
2022-11-09T18:42:34.075Z,20.52
2022-11-09T18:45:00.537Z,20.45
2022-11-09T18:47:27.091Z,21.90
2022-11-09T18:49:53.472Z,17.55
2022-11-09T18:52:19.907Z,27.25
2022-11-09T18:54:46.374Z,19.35
2022-11-09T18:57:16.001Z,20.83
2022-11-09T18:59:46.012Z,22.88
2022-11-09T19:02:13.920Z,25.52
2022-11-09T19:04:40.907Z,27.65
2022-11-09T19:07:07.414Z,22.65
2022-11-09T19:09:38.567Z,29.05
2022-11-09T19:12:10.202Z,25.00
2022-11-09T19:14:41.180Z,27.55
2022-11-09T19:17:14.224Z,22.73
2022-11-09T19:19:42.207Z,20.02
2022-11-09T19:22:15.051Z,26.65
2022-11-09T19:24:41.697Z,23.98
2022-11-09T19:27:08.071Z,26.33
2022-11-09T19:29:34.470Z,22.27
2022-11-09T19:32:00.851Z,21.05
2022-11-09T19:34:27.451Z,26.33
2022-11-09T19:36:53.917Z,23.08
2022-11-09T19:39:20.471Z,21.80
2022-11-09T19:41:47.861Z,22.00
2022-11-09T19:44:14.926Z,20.45
2022-11-09T19:46:41.545Z,25.52
2022-11-09T19:49:09.193Z,27.35
2022-11-09T19:51:36.591Z,22.92
2022-11-09T19:54:04.594Z,23.27
2022-11-09T19:56:32.468Z,29.75
2022-11-09T19:59:01.248Z,22.20
2022-11-09T20:01:27.994Z,27.88
2022-11-09T20:03:56.223Z,24.40
2022-11-09T20:06:24.227Z,22.55
2022-11-09T20:08:52.101Z,26.88
2022-11-09T20:11:40.646Z,23.65
2022-11-09T20:14:08.313Z,23.35
2022-11-09T20:16:36.466Z,21.33
2022-11-09T20:19:04.849Z,22.20
2022-11-09T20:21:31.600Z,20.73
2022-11-09T20:23:58.397Z,22.92
2022-11-09T20:26:24.747Z,26.80
2022-11-09T20:28:54.684Z,24.20
2022-11-09T20:31:22.727Z,23.58
2022-11-09T20:33:50.147Z,23.13
2022-11-09T20:36:18.726Z,21.40
2022-11-09T20:38:45.897Z,23.45
2022-11-09T20:41:12.330Z,29.58
2022-11-09T20:43:39.522Z,24.55
2022-11-09T20:46:08.853Z,20.75
2022-11-09T20:48:53.442Z,19.75
2022-11-09T20:51:21.260Z,22.88
2022-11-09T20:53:50.088Z,20.15
2022-11-09T20:56:17.577Z,21.05
2022-11-09T20:58:43.989Z,20.70
2022-11-09T21:01:13.627Z,23.17
2022-11-09T21:03:40.399Z,22.35
2022-11-09T21:06:07.848Z,19.85
2022-11-09T21:08:35.758Z,20.45
2022-11-09T21:11:04.491Z,22.63
2022-11-09T21:13:31.527Z,24.55
2022-11-09T21:16:09.076Z,21.30
2022-11-09T21:18:35.895Z,19.92
2022-11-09T21:21:13.406Z,20.63
2022-11-09T21:23:58.732Z,20.02
2022-11-09T21:26:43.978Z,20.67
2022-11-09T21:29:32.974Z,20.92
2022-11-09T21:31:59.597Z,21.17
2022-11-09T21:34:26.346Z,19.58
2022-11-09T21:36:52.720Z,16.90
2022-11-09T21:39:19.026Z,15.38
2022-11-09T21:41:45.566Z,15.38
2022-11-09T21:44:12.495Z,16.02
2022-11-09T21:46:40.549Z,18.30
2022-11-09T21:49:08.878Z,17.08
2022-11-09T21:51:37.029Z,17.40
2022-11-09T21:54:04.794Z,16.90
2022-11-09T21:56:31.160Z,15.60
2022-11-09T21:58:57.927Z,16.52
2022-11-09T22:01:24.408Z,18.88
2022-11-09T22:03:51.043Z,17.27
2022-11-09T22:06:17.840Z,15.55
2022-11-09T22:08:44.818Z,17.98
2022-11-09T22:11:41.572Z,17.67
2022-11-09T22:14:34.787Z,17.25
2022-11-09T22:17:01.521Z,18.75
2022-11-09T22:19:46.837Z,15.80
2022-11-09T22:22:14.217Z,16.88
2022-11-09T22:24:40.922Z,18.92
2022-11-09T22:27:07.719Z,20.55
2022-11-09T22:29:34.203Z,40.47
2022-11-09T22:32:00.623Z,19.60
2022-11-09T22:34:27.295Z,38.00
2022-11-09T22:36:53.667Z,46.22
2022-11-09T22:39:20.265Z,26.23
2022-11-09T22:41:46.608Z,28.25
2022-11-09T22:44:13.331Z,27.77
2022-11-09T22:46:39.718Z,41.25
2022-11-09T22:49:06.638Z,22.33
2022-11-09T22:51:32.997Z,39.42
2022-11-09T22:53:59.317Z,56.45
2022-11-09T22:56:25.703Z,113.65
2022-11-09T22:58:52.707Z,31.35
2022-11-09T23:01:20.673Z,31.50
2022-11-09T23:03:47.450Z,27.45
2022-11-09T23:06:19.291Z,28.35
2022-11-09T23:08:46.293Z,23.52
2022-11-09T23:11:17.478Z,23.20
2022-11-09T23:16:11.739Z,26.38
2022-11-09T23:18:53.386Z,32.78
2022-11-09T23:21:29.811Z,28.88
2022-11-09T23:23:59.992Z,83.47
2022-11-09T23:26:27.866Z,136.25
2022-11-09T23:28:54.933Z,75.32
2022-11-09T23:31:25.056Z,133.85
2022-11-09T23:33:54.318Z,37.55
2022-11-09T23:36:25.852Z,52.08
2022-11-09T23:38:52.826Z,27.50
2022-11-09T23:41:19.542Z,26.65
2022-11-09T23:43:49.188Z,24.20
2022-11-09T23:46:17.328Z,38.67
2022-11-09T23:48:44.129Z,21.85
2022-11-09T23:51:10.691Z,27.05
2022-11-09T23:53:37.637Z,16.05
2022-11-09T23:56:09.361Z,18.83
2022-11-09T23:58:36.396Z,17.85
